Time;durP1;ratioP1;P1;durP2;ratioP2;P2;SDS_P1;SDS_P2;PMS_P1;PMS_P2;Temp;Humidity;BMP_temperature;BMP_pressure;BME280_temperature;BME280_humidity;BME280_pressure;Samples;Min_cycle;Max_cycle;Signal;HPM_P1;HPM_P2
2023/01/17 00:01:13;;;;;;;;;;;;;;;3.78;75.48;93380.16;4154178;28;19965;-64
2023/01/17 00:03:14;;;;;;;;;;;;;;;3.87;74.55;93363.72;4160186;28;19983;-59
2023/01/17 00:09:57;;;;;;;;;;;;;;;3.88;74.29;93353.19;4158428;28;19979;-62
2023/01/17 00:11:59;;;;;;;;;;;;;;;3.94;74.22;93382.09;4153855;28;19983;-61
2023/01/17 00:14:00;;;;;;;;;;;;;;;4.02;73.89;93382.13;4152175;28;20444;-60
2023/01/17 00:16:02;;;;;;;;;;;;;;;4.03;73.77;93374.19;4148595;28;19952;-59
2023/01/17 00:18:03;;;;;;;;;;;;;;;4.07;73.60;93372.13;4157578;28;19951;-60
2023/01/17 01:34:53;;;;;;;;;;;;;;;3.84;75.77;93348.47;4152356;28;19929;-60
2023/01/17 01:36:55;;;;;;;;;;;;;;;3.92;75.41;93352.91;4152888;28;19969;-59
2023/01/17 01:38:56;;;;;;;;;;;;;;;3.97;75.51;93338.53;4145635;28;19929;-58
2023/01/17 01:40:58;;;;;;;;;;;;;;;4.08;75.17;93342.63;4160624;28;20015;-60
2023/01/17 01:43:01;;;;;;;;;;;;;;;4.18;74.60;93338.16;4156318;28;19981;-59
2023/01/17 01:45:15;;;;;;;;;;;;;;;4.22;74.14;93338.69;4153378;28;20374;-58
2023/01/17 01:47:21;;;;;;;;;;;;;;;4.25;74.72;93322.81;4148730;28;19926;-60
2023/01/17 01:49:23;;;;;;;;;;;;;;;4.19;73.86;93307.88;4160706;28;19940;-59
2023/01/17 01:51:27;;;;;;;;;;;;;;;4.16;73.84;93310.78;4160465;28;19933;-60
2023/01/17 01:53:28;;;;;;;;;;;;;;;4.07;74.36;93291.78;4147692;28;20423;-61
2023/01/17 01:55:31;;;;;;;;;;;;;;;4.09;75.22;93310.59;4153059;28;19941;-59
2023/01/17 01:57:34;;;;;;;;;;;;;;;4.18;74.71;93312.25;4157297;28;20012;-60
2023/01/17 01:59:37;;;;;;;;;;;;;;;4.27;74.78;93319.09;4155376;28;19932;-61
2023/01/17 02:01:38;;;;;;;;;;;;;;;4.34;74.40;93331.44;4157501;28;19998;-60
2023/01/17 02:03:40;;;;;;;;;;;;;;;4.12;74.49;93322.41;4160085;28;19931;-63
2023/01/17 02:05:42;;;;;;;;;;;;;;;3.92;75.66;93329.59;4155276;28;20322;-58
2023/01/17 02:07:49;;;;;;;;;;;;;;;3.87;75.83;93317.91;4157190;28;19929;-59
2023/01/17 02:09:51;;;;;;;;;;;;;;;3.76;76.21;93317.34;4159770;28;20372;-60
2023/01/17 02:11:52;;;;;;;;;;;;;;;3.81;76.12;93308.16;4145245;28;20020;-63
2023/01/17 02:13:54;;;;;;;;;;;;;;;3.92;76.10;93317.44;4147915;28;19937;-61
2023/01/17 02:16:02;;;;;;;;;;;;;;;4.01;75.77;93324.31;4160340;28;19971;-61
2023/01/17 02:18:10;;;;;;;;;;;;;;;4.04;75.76;93321.41;4159911;28;20342;-59
2023/01/17 02:20:11;;;;;;;;;;;;;;;4.15;75.42;93317.75;4161549;28;20334;-60
2023/01/17 02:22:25;;;;;;;;;;;;;;;4.24;74.69;93316.00;4159103;28;20388;-60
2023/01/17 02:24:45;;;;;;;;;;;;;;;4.32;74.87;93318.63;4148141;28;20323;-58
2023/01/17 02:26:50;;;;;;;;;;;;;;;4.39;74.34;93311.88;4159830;28;19932;-59
2023/01/17 02:29:00;;;;;;;;;;;;;;;4.43;74.05;93310.59;4161573;28;19967;-59
2023/01/17 02:31:03;;;;;;;;;;;;;;;4.49;74.30;93309.94;4159967;28;19925;-60
2023/01/17 02:33:07;;;;;;;;;;;;;;;4.43;73.58;93315.78;4146918;28;19940;-58
2023/01/17 02:35:11;;;;;;;;;;;;;;;4.37;73.99;93297.44;4158121;28;19955;-60
2023/01/17 02:37:13;;;;;;;;;;;;;;;4.10;75.01;93307.81;4158762;28;19925;-59
2023/01/17 02:39:16;;;;;;;;;;;;;;;3.94;75.46;93299.97;4160076;28;20040;-60
2023/01/17 02:41:27;;;;;;;;;;;;;;;4.00;75.61;93317.50;4184371;28;19987;-58
2023/01/17 02:43:28;;;;;;;;;;;;;;;4.06;75.26;93322.06;4147605;28;19925;-59
2023/01/17 02:45:30;;;;;;;;;;;;;;;3.90;75.85;93309.00;4151359;28;19933;-59
2023/01/17 02:47:31;;;;;;;;;;;;;;;3.78;76.44;93302.47;4155198;28;19932;-60
2023/01/17 02:49:33;;;;;;;;;;;;;;;3.76;76.28;93299.19;4152066;28;20048;-59
2023/01/17 02:51:37;;;;;;;;;;;;;;;3.80;76.69;93297.94;4158995;28;19936;-60
2023/01/17 02:53:41;;;;;;;;;;;;;;;3.87;76.93;93301.53;4160725;28;19925;-61
2023/01/17 02:55:45;;;;;;;;;;;;;;;3.95;76.31;93286.03;4160437;28;19943;-62
2023/01/17 02:57:47;;;;;;;;;;;;;;;4.05;76.38;93284.16;4161098;28;19926;-61
2023/01/17 02:59:52;;;;;;;;;;;;;;;4.11;76.15;93277.56;4161627;28;19925;-60
2023/01/17 03:01:59;;;;;;;;;;;;;;;4.18;75.33;93275.97;4159772;28;19936;-60
2023/01/17 03:04:07;;;;;;;;;;;;;;;4.27;75.20;93298.34;4158371;28;19925;-61
2023/01/17 03:06:10;;;;;;;;;;;;;;;4.34;74.92;93306.31;4150397;28;19944;-60
2023/01/17 03:08:12;;;;;;;;;;;;;;;4.39;74.88;93282.50;4144040;28;19929;-60
2023/01/17 03:10:13;;;;;;;;;;;;;;;4.40;74.24;93281.56;4190512;28;19932;-62
2023/01/17 03:12:15;;;;;;;;;;;;;;;4.41;74.83;93265.84;4159120;28;19968;-62
2023/01/17 03:14:16;;;;;;;;;;;;;;;4.43;74.66;93276.88;4153113;28;20401;-59
2023/01/17 03:16:19;;;;;;;;;;;;;;;4.41;74.15;93255.47;4160755;28;20015;-58
2023/01/17 03:18:21;;;;;;;;;;;;;;;4.33;75.27;93258.03;4158925;28;20029;-61
2023/01/17 03:20:23;;;;;;;;;;;;;;;4.30;74.59;93263.53;4148265;28;19925;-59
2023/01/17 03:22:24;;;;;;;;;;;;;;;3.81;76.68;93250.38;4151949;28;20343;-62
2023/01/17 03:24:26;;;;;;;;;;;;;;;3.82;77.10;93291.63;4147696;28;19933;-59
2023/01/17 03:26:27;;;;;;;;;;;;;;;3.86;76.90;93248.09;4146935;28;20067;-59
2023/01/17 03:28:28;;;;;;;;;;;;;;;3.76;77.97;93281.06;4150555;28;19927;-57
2023/01/17 03:30:30;;;;;;;;;;;;;;;3.81;77.67;93284.03;4160920;28;20444;-60
2023/01/17 03:32:31;;;;;;;;;;;;;;;3.79;76.97;93284.19;4160849;28;19925;-59
2023/01/17 03:34:33;;;;;;;;;;;;;;;3.80;77.71;93290.16;4160372;28;19979;-60
2023/01/17 03:36:34;;;;;;;;;;;;;;;3.85;77.82;93282.75;4160224;28;20463;-60
2023/01/17 03:38:36;;;;;;;;;;;;;;;3.98;77.39;93277.13;4160154;28;20032;-61
2023/01/17 03:40:37;;;;;;;;;;;;;;;3.67;77.82;93283.59;4159974;28;20381;-60
2023/01/17 03:42:39;;;;;;;;;;;;;;;3.76;78.03;93287.06;4160073;28;19925;-60
2023/01/17 03:44:41;;;;;;;;;;;;;;;3.90;77.77;93296.88;4160674;28;19983;-57
2023/01/17 03:46:43;;;;;;;;;;;;;;;3.90;77.36;93275.34;4153904;28;19925;-60
2023/01/17 03:48:44;;;;;;;;;;;;;;;3.87;77.24;93292.00;4160391;28;19987;-59
2023/01/17 03:50:49;;;;;;;;;;;;;;;3.93;77.91;93295.75;4147007;28;19932;-60
2023/01/17 03:52:51;;;;;;;;;;;;;;;4.00;77.56;93281.22;4159949;28;19952;-44
2023/01/17 03:54:52;;;;;;;;;;;;;;;3.98;77.39;93287.50;4160129;28;20405;-43
2023/01/17 03:56:54;;;;;;;;;;;;;;;3.92;77.83;93264.81;4159884;28;19940;-45
2023/01/17 03:58:57;;;;;;;;;;;;;;;3.59;78.54;93257.69;4149844;28;20003;-43
2023/01/17 04:00:58;;;;;;;;;;;;;;;3.65;78.63;93275.16;4158672;28;19979;-49
2023/01/17 04:03:00;;;;;;;;;;;;;;;3.76;78.71;93302.59;4155867;28;20009;-45
2023/01/17 04:05:02;;;;;;;;;;;;;;;3.87;78.92;93278.22;4155988;28;20164;-45
2023/01/17 04:07:03;;;;;;;;;;;;;;;3.82;78.60;93275.28;4162891;28;19936;-45
2023/01/17 04:09:05;;;;;;;;;;;;;;;3.86;78.65;93303.31;4158350;28;20650;-41
2023/01/17 04:11:06;;;;;;;;;;;;;;;3.94;78.28;93297.38;4147309;28;20016;-44
2023/01/17 04:13:08;;;;;;;;;;;;;;;4.05;78.51;93296.31;4150071;28;19938;-45
2023/01/17 04:15:09;;;;;;;;;;;;;;;3.92;78.87;93285.56;4163412;28;20012;-44
2023/01/17 04:17:11;;;;;;;;;;;;;;;3.95;78.50;93309.34;4150307;28;20534;-45
2023/01/17 04:19:12;;;;;;;;;;;;;;;4.00;78.39;93314.09;4156660;28;19968;-44
2023/01/17 04:21:14;;;;;;;;;;;;;;;3.63;79.81;93302.19;4154416;28;20059;-44
2023/01/17 04:23:16;;;;;;;;;;;;;;;3.69;80.01;93332.66;4163026;28;19929;-46
2023/01/17 04:25:18;;;;;;;;;;;;;;;3.84;80.11;93336.34;4151774;28;19933;-45
2023/01/17 04:27:20;;;;;;;;;;;;;;;3.98;78.96;93318.59;4158748;28;19925;-44
2023/01/17 04:29:21;;;;;;;;;;;;;;;4.06;79.26;93306.50;4149707;28;19930;-47
2023/01/17 04:31:23;;;;;;;;;;;;;;;4.08;79.01;93294.19;4159928;28;19925;-46
2023/01/17 04:33:24;;;;;;;;;;;;;;;4.05;78.57;93314.44;4154962;28;19929;-46
2023/01/17 04:35:27;;;;;;;;;;;;;;;4.12;79.13;93299.91;4152010;28;20374;-45
2023/01/17 04:37:29;;;;;;;;;;;;;;;4.19;78.31;93310.47;4161140;28;19929;-45
2023/01/17 04:39:30;;;;;;;;;;;;;;;4.07;78.17;93295.19;4150894;28;19926;-44
2023/01/17 04:41:32;;;;;;;;;;;;;;;4.09;78.36;93300.22;4148273;28;19925;-45
2023/01/17 04:43:34;;;;;;;;;;;;;;;4.14;78.61;93325.69;4154817;28;19988;-44
2023/01/17 04:45:37;;;;;;;;;;;;;;;4.21;78.21;93326.69;4162958;28;19925;-46
2023/01/17 04:47:39;;;;;;;;;;;;;;;4.23;78.22;93294.44;4161220;28;20092;-44
2023/01/17 04:49:40;;;;;;;;;;;;;;;4.27;78.44;93316.50;4161447;28;19932;-45
2023/01/17 04:51:44;;;;;;;;;;;;;;;4.07;78.70;93313.31;4161710;28;19929;-44
2023/01/17 04:53:45;;;;;;;;;;;;;;;3.99;79.53;93296.91;4162247;28;20017;-45
2023/01/17 04:55:47;;;;;;;;;;;;;;;3.93;80.50;93321.66;4161585;28;19971;-45
2023/01/17 04:57:48;;;;;;;;;;;;;;;4.06;79.83;93349.75;4162455;28;19936;-44
2023/01/17 04:59:52;;;;;;;;;;;;;;;4.15;79.89;93348.03;4163001;28;19932;-44
2023/01/17 05:01:53;;;;;;;;;;;;;;;4.20;79.42;93345.78;4163111;28;20052;-46
2023/01/17 05:03:55;;;;;;;;;;;;;;;4.26;78.44;93347.78;4162723;28;19979;-46
2023/01/17 05:05:56;;;;;;;;;;;;;;;4.29;79.03;93342.28;4155761;28;21313;-48
2023/01/17 05:07:58;;;;;;;;;;;;;;;4.38;78.33;93353.50;4156288;28;19930;-47
2023/01/17 05:10:00;;;;;;;;;;;;;;;4.41;78.33;93343.63;4161092;28;19983;-45
2023/01/17 05:12:01;;;;;;;;;;;;;;;4.49;78.31;93346.25;4154293;28;20024;-46
2023/01/17 05:14:03;;;;;;;;;;;;;;;4.56;78.00;93351.66;4147033;28;20023;-46
2023/01/17 05:16:05;;;;;;;;;;;;;;;4.61;77.40;93370.13;4146968;28;19926;-45
2023/01/17 05:18:09;;;;;;;;;;;;;;;4.68;76.97;93367.72;4151490;28;19925;-44
2023/01/17 05:20:11;;;;;;;;;;;;;;;4.71;76.37;93351.84;4152896;28;19929;-44
2023/01/17 05:22:16;;;;;;;;;;;;;;;4.65;76.68;93358.50;4146963;28;19932;-44
2023/01/17 05:24:17;;;;;;;;;;;;;;;4.60;77.10;93341.75;4150397;28;19951;-45
2023/01/17 05:26:19;;;;;;;;;;;;;;;4.66;76.84;93333.34;4148153;28;20423;-44
2023/01/17 05:28:20;;;;;;;;;;;;;;;4.49;77.26;93320.31;4159423;28;20079;-44
2023/01/17 05:30:22;;;;;;;;;;;;;;;4.54;77.69;93335.44;4151646;28;20348;-46
2023/01/17 05:32:23;;;;;;;;;;;;;;;4.49;77.04;93324.69;4162354;28;19936;-48
2023/01/17 05:34:25;;;;;;;;;;;;;;;4.35;77.48;93327.91;4154939;28;19933;-43
2023/01/17 05:36:26;;;;;;;;;;;;;;;4.27;78.77;93333.84;4147828;28;19933;-48
2023/01/17 05:38:28;;;;;;;;;;;;;;;4.06;79.72;93316.88;4146301;28;20192;-45
2023/01/17 05:40:30;;;;;;;;;;;;;;;4.02;79.96;93327.69;4160013;28;19968;-45
2023/01/17 05:42:32;;;;;;;;;;;;;;;4.10;79.38;93331.16;4145514;28;20484;-46
2023/01/17 05:44:34;;;;;;;;;;;;;;;4.24;79.77;93331.56;4161361;28;19995;-44
2023/01/17 05:46:35;;;;;;;;;;;;;;;4.36;78.71;93327.72;4155962;28;20251;-43
2023/01/17 05:48:37;;;;;;;;;;;;;;;4.43;78.77;93315.78;4146350;28;20402;-44
2023/01/17 05:50:38;;;;;;;;;;;;;;;4.22;78.71;93302.41;4158872;28;19925;-47
2023/01/17 05:52:40;;;;;;;;;;;;;;;4.33;79.13;93304.72;4145383;28;20021;-45
2023/01/17 05:54:41;;;;;;;;;;;;;;;4.33;78.11;93289.16;4148012;28;19940;-45
2023/01/17 05:56:43;;;;;;;;;;;;;;;4.29;79.02;93282.66;4152399;28;20413;-45
2023/01/17 05:58:45;;;;;;;;;;;;;;;4.38;79.35;93281.72;4159756;28;19983;-44
2023/01/17 06:00:46;;;;;;;;;;;;;;;4.46;78.36;93279.16;4160165;28;20246;-46
2023/01/17 06:02:48;;;;;;;;;;;;;;;4.51;77.89;93300.22;4159843;28;19936;-45
2023/01/17 06:04:49;;;;;;;;;;;;;;;4.58;77.83;93294.41;4162010;28;20020;-44
2023/01/17 06:06:51;;;;;;;;;;;;;;;4.60;78.09;93287.28;4161396;28;20459;-44
2023/01/17 06:08:52;;;;;;;;;;;;;;;4.62;78.04;93288.75;4158389;28;19990;-44
2023/01/17 06:10:54;;;;;;;;;;;;;;;4.68;77.82;93276.94;4149312;28;19930;-43
2023/01/17 06:13:00;;;;;;;;;;;;;;;4.79;77.69;93283.63;4175237;28;19928;-43
2023/01/17 06:15:01;;;;;;;;;;;;;;;4.85;77.02;93267.41;4145935;28;20024;-45
2023/01/17 06:17:03;;;;;;;;;;;;;;;4.96;76.58;93268.91;4145986;28;19976;-46
2023/01/17 06:19:05;;;;;;;;;;;;;;;5.06;76.26;93282.53;4158553;28;20326;-45
2023/01/17 06:21:06;;;;;;;;;;;;;;;5.00;75.90;93239.06;4148806;28;19929;-46
2023/01/17 06:23:11;;;;;;;;;;;;;;;5.04;76.24;93250.75;4161103;28;19933;-45
2023/01/17 06:25:13;;;;;;;;;;;;;;;4.98;76.38;93243.59;4160792;28;19925;-46
2023/01/17 06:27:14;;;;;;;;;;;;;;;4.89;77.23;93273.91;4148504;28;19926;-43
2023/01/17 06:29:16;;;;;;;;;;;;;;;4.93;76.57;93289.00;4156809;28;20660;-45
2023/01/17 06:31:17;;;;;;;;;;;;;;;4.92;76.51;93302.13;4146902;28;19971;-46
2023/01/17 06:33:19;;;;;;;;;;;;;;;5.05;76.04;93291.28;4146884;28;19942;-45
2023/01/17 06:35:21;;;;;;;;;;;;;;;5.12;76.37;93293.09;4147612;28;19925;-47
2023/01/17 06:37:23;;;;;;;;;;;;;;;5.19;76.12;93316.63;4149636;28;19925;-49
2023/01/17 06:39:24;;;;;;;;;;;;;;;5.21;75.75;93301.69;4154766;28;19933;-45
2023/01/17 06:41:26;;;;;;;;;;;;;;;5.31;75.73;93309.31;4159941;28;19945;-44
2023/01/17 06:43:31;;;;;;;;;;;;;;;5.18;76.26;93330.56;4161023;28;19925;-44
2023/01/17 06:45:33;;;;;;;;;;;;;;;5.01;76.55;93340.13;4152823;28;19925;-43
2023/01/17 06:47:38;;;;;;;;;;;;;;;4.82;77.96;93304.03;4145858;28;19925;-44
2023/01/17 06:49:39;;;;;;;;;;;;;;;4.90;77.88;93327.44;4161275;28;20008;-45
2023/01/17 06:51:41;;;;;;;;;;;;;;;5.07;76.72;93334.28;4153922;28;20178;-45
2023/01/17 06:53:44;;;;;;;;;;;;;;;5.16;76.20;93337.69;4156201;28;19925;-44
2023/01/17 06:55:45;;;;;;;;;;;;;;;5.05;77.13;93315.44;4154948;28;19926;-43
2023/01/17 06:57:48;;;;;;;;;;;;;;;5.16;76.90;93324.72;4156185;28;20342;-45
2023/01/17 06:59:50;;;;;;;;;;;;;;;5.32;76.28;93342.94;4160607;28;19929;-46
2023/01/17 07:01:51;;;;;;;;;;;;;;;5.39;76.04;93329.31;4155926;28;19926;-45
2023/01/17 07:03:53;;;;;;;;;;;;;;;5.49;75.68;93343.75;4154642;28;19940;-45
2023/01/17 07:05:55;;;;;;;;;;;;;;;5.62;75.05;93325.09;4157799;28;19933;-44
2023/01/17 07:07:56;;;;;;;;;;;;;;;5.54;75.57;93328.50;4157959;28;19929;-44
2023/01/17 07:09:59;;;;;;;;;;;;;;;5.69;75.07;93333.06;4159341;28;19925;-46
2023/01/17 07:12:00;;;;;;;;;;;;;;;5.86;74.65;93313.88;4160432;28;20408;-44
2023/01/17 07:14:02;;;;;;;;;;;;;;;6.19;73.50;93323.44;4160461;28;19929;-46
2023/01/17 07:16:04;;;;;;;;;;;;;;;6.32;72.85;93327.16;4159687;28;20058;-45
2023/01/17 07:18:06;;;;;;;;;;;;;;;6.42;72.77;93306.13;4160786;28;20588;-45
2023/01/17 07:20:08;;;;;;;;;;;;;;;6.54;72.41;93317.81;4160867;28;19986;-45
2023/01/17 07:22:09;;;;;;;;;;;;;;;6.64;71.72;93308.97;4158504;28;19925;-47
2023/01/17 07:24:11;;;;;;;;;;;;;;;6.72;71.38;93309.75;4160048;28;19938;-45
2023/01/17 07:26:13;;;;;;;;;;;;;;;6.93;71.17;93295.34;4160692;28;19925;-46
2023/01/17 07:28:14;;;;;;;;;;;;;;;7.12;70.04;93309.69;4155633;28;19975;-46
2023/01/17 07:30:16;;;;;;;;;;;;;;;7.16;69.55;93303.16;4156944;28;19937;-45
2023/01/17 07:32:17;;;;;;;;;;;;;;;7.26;69.82;93319.41;4159391;28;20297;-47
2023/01/17 07:34:19;;;;;;;;;;;;;;;7.54;68.89;93306.66;4160126;28;19929;-49
2023/01/17 07:36:21;;;;;;;;;;;;;;;7.97;67.49;93308.75;4160335;28;19959;-47
2023/01/17 07:38:23;;;;;;;;;;;;;;;8.21;67.21;93324.16;4159269;28;20387;-46
2023/01/17 07:40:25;;;;;;;;;;;;;;;8.35;66.35;93332.19;4159086;28;19926;-45
2023/01/17 07:42:27;;;;;;;;;;;;;;;8.43;66.30;93313.06;4160956;28;20016;-46
2023/01/17 07:44:28;;;;;;;;;;;;;;;8.67;65.91;93296.28;4158839;28;20350;-44
2023/01/17 07:46:30;;;;;;;;;;;;;;;8.91;64.69;93285.56;4160879;28;19941;-47
2023/01/17 07:48:32;;;;;;;;;;;;;;;9.16;64.34;93290.44;4151030;28;19925;-47
2023/01/17 07:50:33;;;;;;;;;;;;;;;9.38;62.93;93312.19;4155533;28;19926;-45
2023/01/17 07:52:35;;;;;;;;;;;;;;;9.58;62.57;93317.63;4145014;28;19930;-46
2023/01/17 07:54:36;;;;;;;;;;;;;;;9.70;62.21;93304.84;4147332;28;20742;-44
2023/01/17 07:56:38;;;;;;;;;;;;;;;9.86;61.45;93306.41;4159725;28;19932;-46
2023/01/17 07:58:40;;;;;;;;;;;;;;;9.98;60.73;93304.88;4151123;28;20277;-46
2023/01/17 08:00:43;;;;;;;;;;;;;;;10.05;60.51;93297.91;4144233;28;19925;-51
2023/01/17 08:02:45;;;;;;;;;;;;;;;10.07;60.09;93305.53;4159272;28;19926;-47
2023/01/17 08:04:47;;;;;;;;;;;;;;;10.11;59.88;93294.53;4159635;28;20027;-46
2023/01/17 08:06:50;;;;;;;;;;;;;;;10.19;59.37;93296.16;4153663;28;20488;-45
2023/01/17 08:08:57;;;;;;;;;;;;;;;10.26;59.25;93302.28;4157916;28;20004;-45
2023/01/17 08:10:59;;;;;;;;;;;;;;;10.32;58.98;93319.03;4160133;28;19925;-48
2023/01/17 08:13:00;;;;;;;;;;;;;;;10.38;58.90;93324.31;4147422;28;19929;-45
2023/01/17 08:15:02;;;;;;;;;;;;;;;10.46;58.26;93281.47;4156428;28;19925;-44
2023/01/17 08:17:12;;;;;;;;;;;;;;;10.56;57.56;93338.72;4154979;28;19976;-45
2023/01/17 08:19:14;;;;;;;;;;;;;;;10.63;57.44;93321.25;4155173;28;19971;-46
2023/01/17 08:21:16;;;;;;;;;;;;;;;10.70;57.69;93327.34;4156058;28;19929;-47
2023/01/17 08:23:17;;;;;;;;;;;;;;;10.70;57.31;93324.72;4156093;28;20385;-48
2023/01/17 08:25:19;;;;;;;;;;;;;;;10.80;57.58;93334.84;4143388;28;19929;-45
2023/01/17 08:27:20;;;;;;;;;;;;;;;10.80;57.11;93332.22;4159612;28;19952;-45
2023/01/17 08:29:22;;;;;;;;;;;;;;;10.90;57.13;93337.09;4151731;28;19971;-46
2023/01/17 08:31:24;;;;;;;;;;;;;;;10.94;57.03;93327.84;4159399;28;19925;-46
2023/01/17 08:33:25;;;;;;;;;;;;;;;10.97;57.23;93333.53;4156547;28;19979;-46
2023/01/17 08:35:27;;;;;;;;;;;;;;;11.06;56.75;93327.09;4156034;28;19976;-48
2023/01/17 08:37:29;;;;;;;;;;;;;;;11.04;56.58;93330.94;4148338;28;20326;-49
2023/01/17 08:39:30;;;;;;;;;;;;;;;11.11;56.43;93321.28;4152769;28;19971;-50
2023/01/17 08:41:32;;;;;;;;;;;;;;;11.12;56.60;93322.91;4156672;28;19929;-45
2023/01/17 08:43:33;;;;;;;;;;;;;;;11.22;56.65;93330.38;4159550;28;19970;-46
2023/01/17 08:45:35;;;;;;;;;;;;;;;11.29;56.40;93328.59;4149532;28;20362;-48
2023/01/17 08:47:37;;;;;;;;;;;;;;;11.23;56.31;93318.91;4152448;28;19929;-47
2023/01/17 08:49:38;;;;;;;;;;;;;;;11.24;56.23;93329.19;4152674;28;19971;-47
2023/01/17 08:51:40;;;;;;;;;;;;;;;11.23;56.44;93316.28;4157731;28;20313;-46
2023/01/17 08:53:41;;;;;;;;;;;;;;;11.22;56.41;93312.84;4162738;28;19925;-45
2023/01/17 08:55:43;;;;;;;;;;;;;;;11.27;56.06;93305.22;4158070;28;19951;-46
2023/01/17 08:57:44;;;;;;;;;;;;;;;11.30;56.25;93309.25;4163098;28;20480;-47
2023/01/17 08:59:47;;;;;;;;;;;;;;;11.33;56.15;93306.22;4159319;28;19980;-47
2023/01/17 09:01:51;;;;;;;;;;;;;;;11.33;55.66;93300.16;4146937;28;19925;-45
2023/01/17 09:03:52;;;;;;;;;;;;;;;11.29;55.88;93305.00;4147263;28;19925;-46
2023/01/17 09:06:04;;;;;;;;;;;;;;;11.24;55.76;93302.16;4153174;28;20025;-45
2023/01/17 09:08:06;;;;;;;;;;;;;;;11.35;55.61;93293.72;4159256;28;19968;-46
2023/01/17 09:10:08;;;;;;;;;;;;;;;11.29;55.25;93315.47;4149463;28;19968;-49
2023/01/17 09:12:09;;;;;;;;;;;;;;;11.45;55.36;93322.19;4158705;28;19925;-46
2023/01/17 09:14:11;;;;;;;;;;;;;;;11.45;55.03;93290.72;4162706;28;19925;-45
2023/01/17 09:16:13;;;;;;;;;;;;;;;11.58;54.53;93303.06;4149544;28;19929;-46
2023/01/17 09:18:14;;;;;;;;;;;;;;;11.60;54.69;93298.44;4155988;28;19925;-47
2023/01/17 09:20:16;;;;;;;;;;;;;;;11.65;54.34;93286.31;4152761;28;19999;-48
2023/01/17 09:22:17;;;;;;;;;;;;;;;11.67;53.84;93273.81;4161740;28;19933;-46
2023/01/17 09:24:19;;;;;;;;;;;;;;;11.71;53.79;93284.72;4158831;28;19932;-47
2023/01/17 09:26:25;;;;;;;;;;;;;;;11.78;54.17;93311.75;4156116;28;19929;-47
2023/01/17 09:28:26;;;;;;;;;;;;;;;11.87;53.58;93297.44;4151571;28;19956;-46
2023/01/17 09:30:28;;;;;;;;;;;;;;;11.90;53.51;93282.34;4149400;28;19925;-47
2023/01/17 09:32:29;;;;;;;;;;;;;;;11.90;53.79;93300.72;4153875;28;19929;-49
2023/01/17 09:34:31;;;;;;;;;;;;;;;11.90;53.82;93269.22;4154804;28;20381;-46
2023/01/17 09:36:32;;;;;;;;;;;;;;;11.93;53.78;93271.44;4150488;28;20398;-49
2023/01/17 09:38:34;;;;;;;;;;;;;;;11.79;54.11;93260.91;4159856;28;19929;-47
2023/01/17 09:40:37;;;;;;;;;;;;;;;11.88;53.79;93261.53;4148280;28;20043;-48
2023/01/17 09:42:39;;;;;;;;;;;;;;;11.99;53.73;93281.13;4148397;28;20339;-62
2023/01/17 09:44:41;;;;;;;;;;;;;;;12.03;53.37;93290.22;4157801;28;19963;-61
2023/01/17 09:46:44;;;;;;;;;;;;;;;12.02;53.66;93284.16;4153318;28;19929;-63
2023/01/17 09:48:45;;;;;;;;;;;;;;;12.01;53.61;93305.34;4156445;28;19979;-62
2023/01/17 09:50:49;;;;;;;;;;;;;;;12.06;53.44;93295.84;4160953;28;19955;-64
2023/01/17 09:52:59;;;;;;;;;;;;;;;12.03;53.06;93321.72;4159668;28;19960;-63
2023/01/17 09:55:01;;;;;;;;;;;;;;;12.02;53.28;93299.09;4155001;28;19925;-61
2023/01/17 09:57:15;;;;;;;;;;;;;;;12.09;53.12;93336.66;4161318;28;19929;-63
2023/01/17 09:59:20;;;;;;;;;;;;;;;11.96;53.42;93308.59;4160678;28;19948;-60
2023/01/17 10:01:21;;;;;;;;;;;;;;;11.94;53.12;93315.84;4153421;28;19951;-64
2023/01/17 10:03:42;;;;;;;;;;;;;;;12.01;53.25;93313.22;4161969;28;19960;-63
2023/01/17 10:06:02;;;;;;;;;;;;;;;12.00;53.36;93315.06;4155127;28;19925;-61
2023/01/17 10:08:12;;;;;;;;;;;;;;;12.03;53.74;93329.59;4145884;28;19926;-60
2023/01/17 10:10:33;;;;;;;;;;;;;;;12.00;53.32;93322.09;4158767;28;20278;-63
2023/01/17 10:12:40;;;;;;;;;;;;;;;12.09;53.08;93298.09;4152368;28;20648;-61
2023/01/17 10:14:45;;;;;;;;;;;;;;;12.12;53.13;93302.13;4150219;28;19926;-61
2023/01/17 10:17:01;;;;;;;;;;;;;;;12.07;53.22;93310.59;4146634;28;19929;-61
2023/01/17 10:19:09;;;;;;;;;;;;;;;12.09;53.40;93331.41;4146266;28;19929;-61
2023/01/17 10:21:10;;;;;;;;;;;;;;;12.05;53.59;93314.44;4145818;28;19999;-61
2023/01/17 10:23:33;;;;;;;;;;;;;;;12.14;53.56;93328.97;4146701;28;20285;-61
2023/01/17 10:25:39;;;;;;;;;;;;;;;12.22;52.90;93328.78;4150548;28;20032;-62
2023/01/17 10:27:44;;;;;;;;;;;;;;;12.25;52.87;93328.34;4161284;28;19929;-62
2023/01/17 10:29:46;;;;;;;;;;;;;;;12.14;53.38;93328.16;4159593;28;20002;-60
2023/01/17 10:31:50;;;;;;;;;;;;;;;12.20;53.21;93330.78;4150355;28;19929;-61
2023/01/17 10:33:52;;;;;;;;;;;;;;;12.21;52.98;93316.66;4154694;28;19924;-61
2023/01/17 10:35:56;;;;;;;;;;;;;;;12.24;53.16;93339.09;4160890;28;19925;-62
2023/01/17 10:37:58;;;;;;;;;;;;;;;12.27;52.90;93333.41;4147798;28;19933;-61
2023/01/17 10:40:01;;;;;;;;;;;;;;;12.32;53.31;93340.69;4160023;28;19971;-62
2023/01/17 10:42:11;;;;;;;;;;;;;;;12.32;52.85;93328.34;4148520;28;19929;-62
2023/01/17 10:44:32;;;;;;;;;;;;;;;12.41;52.76;93323.69;4155907;28;19925;-60
2023/01/17 10:46:33;;;;;;;;;;;;;;;12.39;52.50;93325.72;4151057;28;20028;-62
2023/01/17 10:48:35;;;;;;;;;;;;;;;12.46;52.14;93321.28;4161405;28;20372;-60
2023/01/17 10:50:57;;;;;;;;;;;;;;;12.48;52.07;93320.06;4158335;28;20055;-63
2023/01/17 10:53:02;;;;;;;;;;;;;;;12.48;51.80;93324.53;4157124;28;19963;-61
2023/01/17 10:55:08;;;;;;;;;;;;;;;12.42;52.25;93309.56;4159345;28;19936;-60
2023/01/17 10:57:14;;;;;;;;;;;;;;;12.41;52.32;93321.06;4159965;28;19932;-63
2023/01/17 10:59:18;;;;;;;;;;;;;;;12.42;51.51;93328.75;4146554;28;19929;-63
2023/01/17 11:01:20;;;;;;;;;;;;;;;12.40;51.77;93307.13;4154062;28;19964;-66
2023/01/17 11:03:23;;;;;;;;;;;;;;;12.37;52.22;93309.34;4159297;28;19964;-63
2023/01/17 11:05:27;;;;;;;;;;;;;;;12.33;52.49;93308.97;4156289;28;19925;-61
2023/01/17 11:07:28;;;;;;;;;;;;;;;12.31;52.30;93308.38;4158858;28;19975;-62
2023/01/17 11:09:37;;;;;;;;;;;;;;;12.35;52.34;93293.03;4160203;28;19932;-63
2023/01/17 11:11:51;;;;;;;;;;;;;;;12.43;52.36;93298.88;4160670;28;19929;-62
2023/01/17 11:13:52;;;;;;;;;;;;;;;12.48;51.99;93295.63;4158653;28;19925;-61
2023/01/17 11:15:56;;;;;;;;;;;;;;;12.53;51.89;93295.81;4158863;28;20028;-60
2023/01/17 11:18:02;;;;;;;;;;;;;;;12.49;51.91;93279.63;4149057;28;20269;-61
2023/01/17 11:20:19;;;;;;;;;;;;;;;12.52;51.84;93275.00;4160949;28;20390;-63
2023/01/17 11:22:21;;;;;;;;;;;;;;;12.54;51.30;93275.59;4158383;28;19929;-61
2023/01/17 11:24:46;;;;;;;;;;;;;;;12.59;50.78;93271.34;4147948;28;19983;-62
2023/01/17 11:26:48;;;;;;;;;;;;;;;12.62;50.54;93252.53;4158860;28;19925;-62
2023/01/17 11:28:51;;;;;;;;;;;;;;;12.57;50.39;93254.97;4158342;28;19925;-61
2023/01/17 11:30:56;;;;;;;;;;;;;;;12.64;50.53;93262.84;4159418;28;20041;-64
2023/01/17 11:33:07;;;;;;;;;;;;;;;12.59;51.13;93249.53;4150545;28;19932;-62
2023/01/17 11:35:12;;;;;;;;;;;;;;;12.69;51.32;93268.28;4160167;28;19933;-62
2023/01/17 11:37:16;;;;;;;;;;;;;;;12.66;50.71;93242.41;4145030;28;20189;-63
2023/01/17 11:39:18;;;;;;;;;;;;;;;12.75;50.71;93240.38;4143265;28;20033;-61
2023/01/17 11:41:19;;;;;;;;;;;;;;;12.75;49.88;93248.25;4144956;28;19929;-63
2023/01/17 11:43:24;;;;;;;;;;;;;;;12.58;50.54;93225.06;4149163;28;19925;-62
2023/01/17 11:45:27;;;;;;;;;;;;;;;12.67;50.81;93229.09;4149283;28;19956;-63
2023/01/17 11:47:29;;;;;;;;;;;;;;;12.73;50.26;93219.56;4144752;28;20071;-61
2023/01/17 11:49:30;;;;;;;;;;;;;;;12.65;50.60;93207.47;4160628;28;19936;-63
2023/01/17 11:51:32;;;;;;;;;;;;;;;12.67;50.13;93218.56;4153877;28;19930;-61
2023/01/17 11:53:35;;;;;;;;;;;;;;;12.73;50.11;93226.63;4144163;28;20396;-63
2023/01/17 11:55:37;;;;;;;;;;;;;;;12.62;50.09;93213.13;4146343;28;19925;-62
2023/01/17 11:57:39;;;;;;;;;;;;;;;12.73;49.89;93209.03;4154226;28;20027;-62
2023/01/17 11:59:44;;;;;;;;;;;;;;;12.74;49.42;93212.50;4159240;28;19925;-62
2023/01/17 12:01:54;;;;;;;;;;;;;;;12.78;49.45;93221.56;4152543;28;19925;-61
2023/01/17 12:04:02;;;;;;;;;;;;;;;12.82;48.68;93193.84;4158880;28;19936;-62
2023/01/17 12:06:12;;;;;;;;;;;;;;;12.87;48.34;93202.72;4150029;28;20403;-62